Terminal Aerodrome Forecast
Issued by NWS Kansas City/Pleasant Hill, MO

Home | Current Version | Previous Version | Text Only | Print | Product List | Glossary Off
Versions: 1 2 3 4 5 6 7 8 9 10 11 12 13 14 15 16 17

000
FTUS43 KEAX 240500
TAFMCI
TAF
KMCI 240521Z 2406/2506 15014KT P6SM VCSH OVC100
     FM241200 17012KT 5SM TSRA OVC030CB
     FM241700 33015KT P6SM -SHRA BKN030 OVC050
     FM242100 33010KT P6SM SCT030=

USA.gov is the U.S. government's official web portal to all federal, state and local government web resources and services.